sensor_id;sensor_type;location;lat;lon;timestamp;temperature;humidity
65207;SHT31;58477;48.072;11.970;2024-01-25T00:01:22;7.36;87.60
65207;SHT31;58477;48.072;11.970;2024-01-25T00:03:47;7.33;87.86
65207;SHT31;58477;48.072;11.970;2024-01-25T00:06:13;7.40;87.53
65207;SHT31;58477;48.072;11.970;2024-01-25T00:08:38;7.40;87.44
65207;SHT31;58477;48.072;11.970;2024-01-25T00:11:04;7.43;87.35
65207;SHT31;58477;48.072;11.970;2024-01-25T00:13:30;7.42;87.34
65207;SHT31;58477;48.072;11.970;2024-01-25T00:15:56;7.43;87.51
65207;SHT31;58477;48.072;11.970;2024-01-25T00:18:21;7.38;87.73
65207;SHT31;58477;48.072;11.970;2024-01-25T00:20:47;7.40;87.68
65207;SHT31;58477;48.072;11.970;2024-01-25T00:23:12;7.40;87.83
65207;SHT31;58477;48.072;11.970;2024-01-25T00:25:37;7.40;87.71
65207;SHT31;58477;48.072;11.970;2024-01-25T00:28:03;7.36;88.38
65207;SHT31;58477;48.072;11.970;2024-01-25T00:30:29;7.43;87.94
65207;SHT31;58477;48.072;11.970;2024-01-25T00:32:56;7.43;88.07
65207;SHT31;58477;48.072;11.970;2024-01-25T00:35:22;7.40;88.15
65207;SHT31;58477;48.072;11.970;2024-01-25T00:37:48;7.35;88.89
65207;SHT31;58477;48.072;11.970;2024-01-25T00:40:13;7.33;89.02
65207;SHT31;58477;48.072;11.970;2024-01-25T00:42:44;7.36;89.01
65207;SHT31;58477;48.072;11.970;2024-01-25T00:45:11;7.33;89.37
65207;SHT31;58477;48.072;11.970;2024-01-25T00:47:37;7.32;89.63
65207;SHT31;58477;48.072;11.970;2024-01-25T00:50:04;7.29;89.77
65207;SHT31;58477;48.072;11.970;2024-01-25T00:52:30;7.22;90.18
65207;SHT31;58477;48.072;11.970;2024-01-25T00:54:56;7.19;90.48
65207;SHT31;58477;48.072;11.970;2024-01-25T00:57:21;7.15;90.88
65207;SHT31;58477;48.072;11.970;2024-01-25T00:59:47;7.11;91.00
65207;SHT31;58477;48.072;11.970;2024-01-25T01:02:13;7.14;91.16
65207;SHT31;58477;48.072;11.970;2024-01-25T01:04:40;7.02;91.67
65207;SHT31;58477;48.072;11.970;2024-01-25T01:07:06;7.11;91.45
65207;SHT31;58477;48.072;11.970;2024-01-25T01:09:31;7.23;90.92
65207;SHT31;58477;48.072;11.970;2024-01-25T01:11:57;7.16;91.35
65207;SHT31;58477;48.072;11.970;2024-01-25T01:14:23;7.05;91.83
65207;SHT31;58477;48.072;11.970;2024-01-25T01:16:48;7.14;91.40
65207;SHT31;58477;48.072;11.970;2024-01-25T01:19:16;7.12;91.58
65207;SHT31;58477;48.072;11.970;2024-01-25T01:21:41;7.15;91.46
65207;SHT31;58477;48.072;11.970;2024-01-25T01:24:09;7.12;91.87
65207;SHT31;58477;48.072;11.970;2024-01-25T01:26:36;7.12;91.77
65207;SHT31;58477;48.072;11.970;2024-01-25T01:29:01;7.18;91.26
65207;SHT31;58477;48.072;11.970;2024-01-25T01:31:26;7.25;91.22
65207;SHT31;58477;48.072;11.970;2024-01-25T01:33:52;7.28;91.04
65207;SHT31;58477;48.072;11.970;2024-01-25T01:36:17;7.25;91.35
65207;SHT31;58477;48.072;11.970;2024-01-25T01:38:43;7.19;91.46
65207;SHT31;58477;48.072;11.970;2024-01-25T01:41:10;7.18;91.39
65207;SHT31;58477;48.072;11.970;2024-01-25T01:43:36;7.19;91.14
65207;SHT31;58477;48.072;11.970;2024-01-25T01:46:06;7.28;90.86
65207;SHT31;58477;48.072;11.970;2024-01-25T01:48:35;7.39;90.26
65207;SHT31;58477;48.072;11.970;2024-01-25T01:51:00;7.39;90.26
65207;SHT31;58477;48.072;11.970;2024-01-25T01:53:26;7.35;90.66
65207;SHT31;58477;48.072;11.970;2024-01-25T01:55:51;7.30;90.56
65207;SHT31;58477;48.072;11.970;2024-01-25T01:58:18;7.30;90.69
65207;SHT31;58477;48.072;11.970;2024-01-25T02:00:45;7.33;90.51
65207;SHT31;58477;48.072;11.970;2024-01-25T02:03:11;7.39;90.06
65207;SHT31;58477;48.072;11.970;2024-01-25T02:05:37;7.39;90.37
65207;SHT31;58477;48.072;11.970;2024-01-25T02:08:03;7.38;90.20
65207;SHT31;58477;48.072;11.970;2024-01-25T02:10:29;7.33;90.58
65207;SHT31;58477;48.072;11.970;2024-01-25T02:12:54;7.30;90.54
65207;SHT31;58477;48.072;11.970;2024-01-25T02:15:20;7.35;90.32
65207;SHT31;58477;48.072;11.970;2024-01-25T02:17:45;7.32;90.58
65207;SHT31;58477;48.072;11.970;2024-01-25T02:20:11;7.29;90.64
65207;SHT31;58477;48.072;11.970;2024-01-25T02:22:36;7.30;90.80
65207;SHT31;58477;48.072;11.970;2024-01-25T02:25:02;7.29;90.78
65207;SHT31;58477;48.072;11.970;2024-01-25T02:27:27;7.32;90.79
65207;SHT31;58477;48.072;11.970;2024-01-25T02:29:53;7.32;91.13
65207;SHT31;58477;48.072;11.970;2024-01-25T02:32:18;7.28;91.41
65207;SHT31;58477;48.072;11.970;2024-01-25T02:34:43;7.25;91.24
65207;SHT31;58477;48.072;11.970;2024-01-25T02:37:09;7.15;92.47
65207;SHT31;58477;48.072;11.970;2024-01-25T02:39:36;7.18;92.18
65207;SHT31;58477;48.072;11.970;2024-01-25T02:42:01;7.15;92.04
65207;SHT31;58477;48.072;11.970;2024-01-25T02:44:27;7.19;91.76
65207;SHT31;58477;48.072;11.970;2024-01-25T02:46:52;7.18;91.99
65207;SHT31;58477;48.072;11.970;2024-01-25T02:49:18;7.15;92.13
65207;SHT31;58477;48.072;11.970;2024-01-25T02:51:43;7.19;92.06
65207;SHT31;58477;48.072;11.970;2024-01-25T02:54:09;7.19;91.99
65207;SHT31;58477;48.072;11.970;2024-01-25T02:56:35;7.20;91.87
65207;SHT31;58477;48.072;11.970;2024-01-25T02:59:03;7.16;92.08
65207;SHT31;58477;48.072;11.970;2024-01-25T03:01:37;7.20;91.94
65207;SHT31;58477;48.072;11.970;2024-01-25T03:04:03;7.25;91.76
65207;SHT31;58477;48.072;11.970;2024-01-25T03:06:28;7.18;92.06
65207;SHT31;58477;48.072;11.970;2024-01-25T03:08:53;7.20;92.12
65207;SHT31;58477;48.072;11.970;2024-01-25T03:11:19;7.20;92.32
65207;SHT31;58477;48.072;11.970;2024-01-25T03:13:45;7.19;92.47
65207;SHT31;58477;48.072;11.970;2024-01-25T03:16:10;7.22;92.09
65207;SHT31;58477;48.072;11.970;2024-01-25T03:18:35;7.23;92.40
65207;SHT31;58477;48.072;11.970;2024-01-25T03:21:01;7.22;92.35
65207;SHT31;58477;48.072;11.970;2024-01-25T03:23:26;7.19;92.39
65207;SHT31;58477;48.072;11.970;2024-01-25T03:25:52;7.15;92.67
65207;SHT31;58477;48.072;11.970;2024-01-25T03:28:17;7.20;92.61
65207;SHT31;58477;48.072;11.970;2024-01-25T03:30:44;7.20;92.60
65207;SHT31;58477;48.072;11.970;2024-01-25T03:33:09;7.19;92.73
65207;SHT31;58477;48.072;11.970;2024-01-25T03:35:34;7.14;92.55
65207;SHT31;58477;48.072;11.970;2024-01-25T03:38:00;7.20;92.63
65207;SHT31;58477;48.072;11.970;2024-01-25T03:40:25;7.18;92.67
65207;SHT31;58477;48.072;11.970;2024-01-25T03:42:51;7.20;92.67
65207;SHT31;58477;48.072;11.970;2024-01-25T03:45:16;7.30;92.04
65207;SHT31;58477;48.072;11.970;2024-01-25T03:47:42;7.28;92.32
65207;SHT31;58477;48.072;11.970;2024-01-25T03:50:07;7.25;92.55
65207;SHT31;58477;48.072;11.970;2024-01-25T03:52:33;7.35;92.01
65207;SHT31;58477;48.072;11.970;2024-01-25T03:54:58;7.32;92.29
65207;SHT31;58477;48.072;11.970;2024-01-25T03:57:24;7.36;92.26
65207;SHT31;58477;48.072;11.970;2024-01-25T03:59:49;7.35;92.28
65207;SHT31;58477;48.072;11.970;2024-01-25T04:02:15;7.39;92.12
65207;SHT31;58477;48.072;11.970;2024-01-25T04:04:40;7.32;92.50
65207;SHT31;58477;48.072;11.970;2024-01-25T04:07:05;7.33;92.70
65207;SHT31;58477;48.072;11.970;2024-01-25T04:09:31;7.33;92.74
65207;SHT31;58477;48.072;11.970;2024-01-25T04:11:56;7.30;92.97
65207;SHT31;58477;48.072;11.970;2024-01-25T04:14:22;7.33;92.94
65207;SHT31;58477;48.072;11.970;2024-01-25T04:16:48;7.20;93.48
65207;SHT31;58477;48.072;11.970;2024-01-25T04:19:14;7.16;94.05
65207;SHT31;58477;48.072;11.970;2024-01-25T04:21:39;7.20;93.87
65207;SHT31;58477;48.072;11.970;2024-01-25T04:24:05;7.23;94.05
65207;SHT31;58477;48.072;11.970;2024-01-25T04:26:30;7.20;93.92
65207;SHT31;58477;48.072;11.970;2024-01-25T04:28:55;7.19;94.27
65207;SHT31;58477;48.072;11.970;2024-01-25T04:31:21;7.20;94.16
65207;SHT31;58477;48.072;11.970;2024-01-25T04:33:47;7.23;94.09
65207;SHT31;58477;48.072;11.970;2024-01-25T04:36:12;7.26;93.85
65207;SHT31;58477;48.072;11.970;2024-01-25T04:38:37;7.22;93.87
65207;SHT31;58477;48.072;11.970;2024-01-25T04:41:04;7.22;93.90
65207;SHT31;58477;48.072;11.970;2024-01-25T04:43:33;7.20;94.17
65207;SHT31;58477;48.072;11.970;2024-01-25T04:45:59;7.23;93.95
65207;SHT31;58477;48.072;11.970;2024-01-25T04:48:25;7.23;93.86
65207;SHT31;58477;48.072;11.970;2024-01-25T04:50:50;7.23;94.14
65207;SHT31;58477;48.072;11.970;2024-01-25T04:53:16;7.20;93.92
65207;SHT31;58477;48.072;11.970;2024-01-25T04:55:41;7.19;93.90
65207;SHT31;58477;48.072;11.970;2024-01-25T04:58:06;7.23;93.66
65207;SHT31;58477;48.072;11.970;2024-01-25T05:00:32;7.16;93.95
65207;SHT31;58477;48.072;11.970;2024-01-25T05:02:57;7.14;94.20
65207;SHT31;58477;48.072;11.970;2024-01-25T05:05:22;7.14;94.13
65207;SHT31;58477;48.072;11.970;2024-01-25T05:07:48;7.09;94.32
65207;SHT31;58477;48.072;11.970;2024-01-25T05:10:13;7.15;93.96
65207;SHT31;58477;48.072;11.970;2024-01-25T05:12:39;7.06;94.39
65207;SHT31;58477;48.072;11.970;2024-01-25T05:15:04;7.08;94.38
65207;SHT31;58477;48.072;11.970;2024-01-25T05:17:30;7.05;94.46
65207;SHT31;58477;48.072;11.970;2024-01-25T05:19:55;7.06;94.40
65207;SHT31;58477;48.072;11.970;2024-01-25T05:22:21;7.06;94.27
65207;SHT31;58477;48.072;11.970;2024-01-25T05:24:47;7.05;94.50
65207;SHT31;58477;48.072;11.970;2024-01-25T05:27:12;7.04;94.23
65207;SHT31;58477;48.072;11.970;2024-01-25T05:29:37;7.06;94.07
65207;SHT31;58477;48.072;11.970;2024-01-25T05:32:03;7.09;93.87
65207;SHT31;58477;48.072;11.970;2024-01-25T05:34:28;7.04;94.93
65207;SHT31;58477;48.072;11.970;2024-01-25T05:36:54;6.98;95.18
65207;SHT31;58477;48.072;11.970;2024-01-25T05:39:20;6.95;95.20
65207;SHT31;58477;48.072;11.970;2024-01-25T05:41:45;6.85;95.92
65207;SHT31;58477;48.072;11.970;2024-01-25T05:44:12;6.83;96.12
65207;SHT31;58477;48.072;11.970;2024-01-25T05:46:37;6.74;96.30
65207;SHT31;58477;48.072;11.970;2024-01-25T05:49:03;6.78;94.92
65207;SHT31;58477;48.072;11.970;2024-01-25T05:51:28;6.65;96.45
65207;SHT31;58477;48.072;11.970;2024-01-25T05:53:53;6.67;96.47
65207;SHT31;58477;48.072;11.970;2024-01-25T05:56:19;6.61;96.65
65207;SHT31;58477;48.072;11.970;2024-01-25T05:58:44;6.65;96.38
65207;SHT31;58477;48.072;11.970;2024-01-25T06:01:10;6.64;96.24
65207;SHT31;58477;48.072;11.970;2024-01-25T06:03:35;6.67;95.06
65207;SHT31;58477;48.072;11.970;2024-01-25T06:06:01;6.70;95.39
65207;SHT31;58477;48.072;11.970;2024-01-25T06:08:26;6.73;95.48
65207;SHT31;58477;48.072;11.970;2024-01-25T06:10:52;6.73;95.14
65207;SHT31;58477;48.072;11.970;2024-01-25T06:13:17;6.68;94.95
65207;SHT31;58477;48.072;11.970;2024-01-25T06:15:42;6.71;94.42
65207;SHT31;58477;48.072;11.970;2024-01-25T06:18:08;6.70;94.13
65207;SHT31;58477;48.072;11.970;2024-01-25T06:20:33;6.73;94.52
65207;SHT31;58477;48.072;11.970;2024-01-25T06:22:59;6.73;94.48
65207;SHT31;58477;48.072;11.970;2024-01-25T06:25:24;6.75;94.11
65207;SHT31;58477;48.072;11.970;2024-01-25T06:27:51;6.78;93.94
65207;SHT31;58477;48.072;11.970;2024-01-25T06:30:17;6.81;94.16
65207;SHT31;58477;48.072;11.970;2024-01-25T06:32:45;6.77;94.54
65207;SHT31;58477;48.072;11.970;2024-01-25T06:35:10;6.81;93.50
65207;SHT31;58477;48.072;11.970;2024-01-25T06:37:35;6.81;94.03
65207;SHT31;58477;48.072;11.970;2024-01-25T06:40:01;6.81;94.09
65207;SHT31;58477;48.072;11.970;2024-01-25T06:42:28;6.81;93.11
65207;SHT31;58477;48.072;11.970;2024-01-25T06:44:53;6.80;93.33
65207;SHT31;58477;48.072;11.970;2024-01-25T06:47:18;6.77;93.48
65207;SHT31;58477;48.072;11.970;2024-01-25T06:49:44;6.78;93.17
65207;SHT31;58477;48.072;11.970;2024-01-25T06:52:13;6.77;93.03
65207;SHT31;58477;48.072;11.970;2024-01-25T06:54:38;6.75;92.88
65207;SHT31;58477;48.072;11.970;2024-01-25T06:57:03;6.64;92.91
65207;SHT31;58477;48.072;11.970;2024-01-25T06:59:29;6.65;93.09
65207;SHT31;58477;48.072;11.970;2024-01-25T07:01:54;6.67;93.07
65207;SHT31;58477;48.072;11.970;2024-01-25T07:04:20;6.64;93.08
65207;SHT31;58477;48.072;11.970;2024-01-25T07:06:45;6.61;93.44
65207;SHT31;58477;48.072;11.970;2024-01-25T07:09:10;6.50;93.67
65207;SHT31;58477;48.072;11.970;2024-01-25T07:11:36;6.47;93.36
65207;SHT31;58477;48.072;11.970;2024-01-25T07:14:01;6.34;93.82
65207;SHT31;58477;48.072;11.970;2024-01-25T07:16:27;6.29;94.41
65207;SHT31;58477;48.072;11.970;2024-01-25T07:18:52;6.37;94.45
65207;SHT31;58477;48.072;11.970;2024-01-25T07:21:17;6.38;94.58
65207;SHT31;58477;48.072;11.970;2024-01-25T07:23:43;6.44;94.46
65207;SHT31;58477;48.072;11.970;2024-01-25T07:26:08;6.43;94.55
65207;SHT31;58477;48.072;11.970;2024-01-25T07:28:34;6.50;94.39
65207;SHT31;58477;48.072;11.970;2024-01-25T07:30:59;6.57;94.17
65207;SHT31;58477;48.072;11.970;2024-01-25T07:33:24;6.63;93.68
65207;SHT31;58477;48.072;11.970;2024-01-25T07:35:50;6.60;93.67
65207;SHT31;58477;48.072;11.970;2024-01-25T07:38:15;6.65;93.45
65207;SHT31;58477;48.072;11.970;2024-01-25T07:40:41;6.63;93.44
65207;SHT31;58477;48.072;11.970;2024-01-25T07:43:07;6.64;93.65
65207;SHT31;58477;48.072;11.970;2024-01-25T07:45:32;6.65;93.48
65207;SHT31;58477;48.072;11.970;2024-01-25T07:47:58;6.67;93.22
65207;SHT31;58477;48.072;11.970;2024-01-25T07:50:24;6.70;93.08
65207;SHT31;58477;48.072;11.970;2024-01-25T07:52:49;6.71;92.15
65207;SHT31;58477;48.072;11.970;2024-01-25T07:55:17;6.73;91.92
65207;SHT31;58477;48.072;11.970;2024-01-25T07:57:43;6.75;91.86
65207;SHT31;58477;48.072;11.970;2024-01-25T08:00:08;6.77;91.04
65207;SHT31;58477;48.072;11.970;2024-01-25T08:02:35;6.73;90.21
65207;SHT31;58477;48.072;11.970;2024-01-25T08:05:01;6.67;90.54
65207;SHT31;58477;48.072;11.970;2024-01-25T08:07:26;6.95;89.63
65207;SHT31;58477;48.072;11.970;2024-01-25T08:09:52;7.46;86.79
65207;SHT31;58477;48.072;11.970;2024-01-25T08:12:18;7.50;87.09
65207;SHT31;58477;48.072;11.970;2024-01-25T08:14:43;7.33;87.04
65207;SHT31;58477;48.072;11.970;2024-01-25T08:17:09;7.02;88.33
65207;SHT31;58477;48.072;11.970;2024-01-25T08:19:35;6.94;89.23
65207;SHT31;58477;48.072;11.970;2024-01-25T08:22:00;6.91;89.79
65207;SHT31;58477;48.072;11.970;2024-01-25T08:24:26;6.85;90.39
65207;SHT31;58477;48.072;11.970;2024-01-25T08:26:51;6.80;91.01
65207;SHT31;58477;48.072;11.970;2024-01-25T08:29:16;6.95;91.47
65207;SHT31;58477;48.072;11.970;2024-01-25T08:31:42;7.28;90.27
65207;SHT31;58477;48.072;11.970;2024-01-25T08:34:07;8.00;88.74
65207;SHT31;58477;48.072;11.970;2024-01-25T08:36:32;8.55;86.80
65207;SHT31;58477;48.072;11.970;2024-01-25T08:38:58;8.86;85.40
65207;SHT31;58477;48.072;11.970;2024-01-25T08:41:23;8.89;85.40
65207;SHT31;58477;48.072;11.970;2024-01-25T08:43:49;9.26;84.65
65207;SHT31;58477;48.072;11.970;2024-01-25T08:46:14;9.37;84.18
65207;SHT31;58477;48.072;11.970;2024-01-25T08:48:43;9.54;83.09
65207;SHT31;58477;48.072;11.970;2024-01-25T08:51:08;9.09;85.07
65207;SHT31;58477;48.072;11.970;2024-01-25T08:53:34;8.51;85.44
65207;SHT31;58477;48.072;11.970;2024-01-25T08:55:59;8.04;87.30
65207;SHT31;58477;48.072;11.970;2024-01-25T08:58:25;7.76;88.34
65207;SHT31;58477;48.072;11.970;2024-01-25T09:00:50;7.55;87.42
65207;SHT31;58477;48.072;11.970;2024-01-25T09:03:16;7.53;87.51
65207;SHT31;58477;48.072;11.970;2024-01-25T09:05:41;7.39;87.22
65207;SHT31;58477;48.072;11.970;2024-01-25T09:08:14;7.84;85.68
65207;SHT31;58477;48.072;11.970;2024-01-25T09:10:41;7.95;85.72
65207;SHT31;58477;48.072;11.970;2024-01-25T09:13:06;8.73;84.18
65207;SHT31;58477;48.072;11.970;2024-01-25T09:15:31;9.12;82.34
65207;SHT31;58477;48.072;11.970;2024-01-25T09:17:57;9.80;80.15
65207;SHT31;58477;48.072;11.970;2024-01-25T09:20:22;10.09;79.11
65207;SHT31;58477;48.072;11.970;2024-01-25T09:22:48;9.90;77.97
65207;SHT31;58477;48.072;11.970;2024-01-25T09:25:13;10.38;76.32
65207;SHT31;58477;48.072;11.970;2024-01-25T09:27:39;9.97;78.16
65207;SHT31;58477;48.072;11.970;2024-01-25T09:30:05;9.40;79.67
65207;SHT31;58477;48.072;11.970;2024-01-25T09:32:31;9.91;77.65
65207;SHT31;58477;48.072;11.970;2024-01-25T09:34:56;9.81;78.23
65207;SHT31;58477;48.072;11.970;2024-01-25T09:37:21;10.12;76.40
65207;SHT31;58477;48.072;11.970;2024-01-25T09:39:52;10.02;76.55
65207;SHT31;58477;48.072;11.970;2024-01-25T09:42:18;11.26;73.60
65207;SHT31;58477;48.072;11.970;2024-01-25T09:44:44;11.28;73.14
65207;SHT31;58477;48.072;11.970;2024-01-25T09:47:10;11.13;72.79
65207;SHT31;58477;48.072;11.970;2024-01-25T09:49:36;11.00;72.81
65207;SHT31;58477;48.072;11.970;2024-01-25T09:52:03;10.31;73.79
65207;SHT31;58477;48.072;11.970;2024-01-25T09:54:34;9.83;75.43
65207;SHT31;58477;48.072;11.970;2024-01-25T09:57:03;9.22;77.58
65207;SHT31;58477;48.072;11.970;2024-01-25T09:59:31;9.20;78.13
65207;SHT31;58477;48.072;11.970;2024-01-25T10:01:56;8.37;78.43
65207;SHT31;58477;48.072;11.970;2024-01-25T10:04:23;8.47;79.27
65207;SHT31;58477;48.072;11.970;2024-01-25T10:06:49;8.18;80.64
65207;SHT31;58477;48.072;11.970;2024-01-25T10:09:14;8.21;80.19
65207;SHT31;58477;48.072;11.970;2024-01-25T10:11:40;8.38;81.22
65207;SHT31;58477;48.072;11.970;2024-01-25T10:14:06;8.44;80.99
65207;SHT31;58477;48.072;11.970;2024-01-25T10:16:32;8.17;81.12
65207;SHT31;58477;48.072;11.970;2024-01-25T10:18:57;8.13;82.12
65207;SHT31;58477;48.072;11.970;2024-01-25T10:21:23;8.24;82.03
65207;SHT31;58477;48.072;11.970;2024-01-25T10:23:48;8.27;82.07
65207;SHT31;58477;48.072;11.970;2024-01-25T10:26:15;8.61;81.62
65207;SHT31;58477;48.072;11.970;2024-01-25T10:28:41;8.82;80.01
65207;SHT31;58477;48.072;11.970;2024-01-25T10:31:07;8.82;80.09
65207;SHT31;58477;48.072;11.970;2024-01-25T10:33:34;8.44;79.93
65207;SHT31;58477;48.072;11.970;2024-01-25T10:36:01;8.57;80.18
65207;SHT31;58477;48.072;11.970;2024-01-25T10:38:33;9.43;78.47
65207;SHT31;58477;48.072;11.970;2024-01-25T10:41:01;9.95;76.37
65207;SHT31;58477;48.072;11.970;2024-01-25T10:43:28;10.17;74.61
65207;SHT31;58477;48.072;11.970;2024-01-25T10:45:57;10.66;73.12
65207;SHT31;58477;48.072;11.970;2024-01-25T10:48:25;11.66;73.20
65207;SHT31;58477;48.072;11.970;2024-01-25T10:50:54;10.73;73.74
65207;SHT31;58477;48.072;11.970;2024-01-25T10:53:19;11.19;73.49
65207;SHT31;58477;48.072;11.970;2024-01-25T10:55:46;10.92;71.60
65207;SHT31;58477;48.072;11.970;2024-01-25T10:58:13;10.72;73.30
65207;SHT31;58477;48.072;11.970;2024-01-25T11:00:39;10.61;74.57
65207;SHT31;58477;48.072;11.970;2024-01-25T11:03:05;10.45;73.96
65207;SHT31;58477;48.072;11.970;2024-01-25T11:05:31;9.94;75.97
65207;SHT31;58477;48.072;11.970;2024-01-25T11:07:57;9.93;75.12
65207;SHT31;58477;48.072;11.970;2024-01-25T11:10:26;10.14;73.80
65207;SHT31;58477;48.072;11.970;2024-01-25T11:12:59;10.35;73.97
65207;SHT31;58477;48.072;11.970;2024-01-25T11:15:31;10.51;73.45
65207;SHT31;58477;48.072;11.970;2024-01-25T11:17:57;9.73;73.11
65207;SHT31;58477;48.072;11.970;2024-01-25T11:20:24;9.29;74.83
65207;SHT31;58477;48.072;11.970;2024-01-25T11:23:03;10.25;74.11
65207;SHT31;58477;48.072;11.970;2024-01-25T11:25:35;10.21;73.90
65207;SHT31;58477;48.072;11.970;2024-01-25T11:28:02;10.38;73.67
65207;SHT31;58477;48.072;11.970;2024-01-25T11:30:30;10.48;73.72
65207;SHT31;58477;48.072;11.970;2024-01-25T11:32:56;10.80;73.16
65207;SHT31;58477;48.072;11.970;2024-01-25T11:35:22;9.74;74.28
65207;SHT31;58477;48.072;11.970;2024-01-25T11:37:49;10.62;72.81
65207;SHT31;58477;48.072;11.970;2024-01-25T11:40:17;9.95;73.73
65207;SHT31;58477;48.072;11.970;2024-01-25T11:42:45;9.48;76.35
65207;SHT31;58477;48.072;11.970;2024-01-25T11:45:12;9.53;76.36
65207;SHT31;58477;48.072;11.970;2024-01-25T11:47:40;9.20;77.41
65207;SHT31;58477;48.072;11.970;2024-01-25T11:50:07;9.73;76.65
65207;SHT31;58477;48.072;11.970;2024-01-25T11:52:33;10.29;75.03
65207;SHT31;58477;48.072;11.970;2024-01-25T11:55:02;10.39;74.65
65207;SHT31;58477;48.072;11.970;2024-01-25T11:57:34;10.69;74.85
65207;SHT31;58477;48.072;11.970;2024-01-25T12:00:01;9.64;76.38
65207;SHT31;58477;48.072;11.970;2024-01-25T12:02:33;8.90;78.02
65207;SHT31;58477;48.072;11.970;2024-01-25T12:04:59;8.80;78.65
65207;SHT31;58477;48.072;11.970;2024-01-25T12:07:24;9.24;78.15
65207;SHT31;58477;48.072;11.970;2024-01-25T12:10:04;9.22;77.32
65207;SHT31;58477;48.072;11.970;2024-01-25T12:12:30;9.37;77.21
65207;SHT31;58477;48.072;11.970;2024-01-25T12:14:59;9.51;76.62
65207;SHT31;58477;48.072;11.970;2024-01-25T12:17:29;9.48;76.06
65207;SHT31;58477;48.072;11.970;2024-01-25T12:19:58;9.42;76.79
65207;SHT31;58477;48.072;11.970;2024-01-25T12:22:27;9.43;77.11
65207;SHT31;58477;48.072;11.970;2024-01-25T12:24:54;9.40;78.18
65207;SHT31;58477;48.072;11.970;2024-01-25T12:27:21;9.61;77.67
65207;SHT31;58477;48.072;11.970;2024-01-25T12:29:47;9.66;76.88
65207;SHT31;58477;48.072;11.970;2024-01-25T12:32:13;9.43;75.45
65207;SHT31;58477;48.072;11.970;2024-01-25T12:34:39;9.48;76.42
65207;SHT31;58477;48.072;11.970;2024-01-25T12:37:07;9.70;76.15
65207;SHT31;58477;48.072;11.970;2024-01-25T12:39:32;9.70;75.63
65207;SHT31;58477;48.072;11.970;2024-01-25T12:41:58;9.39;75.59
65207;SHT31;58477;48.072;11.970;2024-01-25T12:44:23;9.33;76.69
65207;SHT31;58477;48.072;11.970;2024-01-25T12:46:49;9.42;76.16
65207;SHT31;58477;48.072;11.970;2024-01-25T12:49:14;9.47;77.33
65207;SHT31;58477;48.072;11.970;2024-01-25T12:51:40;9.26;75.96
65207;SHT31;58477;48.072;11.970;2024-01-25T12:54:06;9.29;76.99
65207;SHT31;58477;48.072;11.970;2024-01-25T12:56:32;9.20;76.11
65207;SHT31;58477;48.072;11.970;2024-01-25T12:58:57;9.15;76.25
65207;SHT31;58477;48.072;11.970;2024-01-25T13:01:23;9.29;77.00
65207;SHT31;58477;48.072;11.970;2024-01-25T13:03:48;9.19;76.35
65207;SHT31;58477;48.072;11.970;2024-01-25T13:06:14;9.09;77.04
65207;SHT31;58477;48.072;11.970;2024-01-25T13:08:39;8.92;76.70
65207;SHT31;58477;48.072;11.970;2024-01-25T13:11:05;9.29;77.10
65207;SHT31;58477;48.072;11.970;2024-01-25T13:13:30;9.47;76.00
65207;SHT31;58477;48.072;11.970;2024-01-25T13:15:55;9.37;75.88
65207;SHT31;58477;48.072;11.970;2024-01-25T13:18:21;9.40;75.62
65207;SHT31;58477;48.072;11.970;2024-01-25T13:20:46;9.50;75.59
65207;SHT31;58477;48.072;11.970;2024-01-25T13:23:13;9.70;75.51
65207;SHT31;58477;48.072;11.970;2024-01-25T13:25:38;9.54;75.21
65207;SHT31;58477;48.072;11.970;2024-01-25T13:28:04;9.66;76.02
65207;SHT31;58477;48.072;11.970;2024-01-25T13:30:29;9.60;75.55
65207;SHT31;58477;48.072;11.970;2024-01-25T13:32:55;9.61;75.74
65207;SHT31;58477;48.072;11.970;2024-01-25T13:35:20;9.67;76.35
65207;SHT31;58477;48.072;11.970;2024-01-25T13:37:46;9.61;75.34
65207;SHT31;58477;48.072;11.970;2024-01-25T13:40:11;9.71;75.79
65207;SHT31;58477;48.072;11.970;2024-01-25T13:42:37;9.69;75.95
65207;SHT31;58477;48.072;11.970;2024-01-25T13:45:02;9.63;76.32
65207;SHT31;58477;48.072;11.970;2024-01-25T13:47:28;9.47;76.65
65207;SHT31;58477;48.072;11.970;2024-01-25T13:49:53;9.51;76.33
65207;SHT31;58477;48.072;11.970;2024-01-25T13:52:19;9.56;75.94
65207;SHT31;58477;48.072;11.970;2024-01-25T13:54:46;9.57;76.47
65207;SHT31;58477;48.072;11.970;2024-01-25T13:57:13;9.51;76.25
65207;SHT31;58477;48.072;11.970;2024-01-25T13:59:39;9.42;76.79
65207;SHT31;58477;48.072;11.970;2024-01-25T14:02:05;9.44;77.00
65207;SHT31;58477;48.072;11.970;2024-01-25T14:04:30;9.51;76.08
65207;SHT31;58477;48.072;11.970;2024-01-25T14:06:55;9.64;75.83
65207;SHT31;58477;48.072;11.970;2024-01-25T14:09:21;9.61;75.60
65207;SHT31;58477;48.072;11.970;2024-01-25T14:11:46;9.37;75.71
65207;SHT31;58477;48.072;11.970;2024-01-25T14:14:12;9.29;75.84
65207;SHT31;58477;48.072;11.970;2024-01-25T14:16:37;9.32;76.06
65207;SHT31;58477;48.072;11.970;2024-01-25T14:19:02;9.30;76.40
65207;SHT31;58477;48.072;11.970;2024-01-25T14:21:29;9.16;76.90
65207;SHT31;58477;48.072;11.970;2024-01-25T14:23:55;9.13;76.86
65207;SHT31;58477;48.072;11.970;2024-01-25T14:26:20;9.08;77.09
65207;SHT31;58477;48.072;11.970;2024-01-25T14:28:47;9.06;77.40
65207;SHT31;58477;48.072;11.970;2024-01-25T14:31:13;8.99;77.75
65207;SHT31;58477;48.072;11.970;2024-01-25T14:33:38;8.90;78.35
65207;SHT31;58477;48.072;11.970;2024-01-25T14:36:03;8.92;78.09
65207;SHT31;58477;48.072;11.970;2024-01-25T14:38:29;8.89;78.41
65207;SHT31;58477;48.072;11.970;2024-01-25T14:40:54;8.86;78.38
65207;SHT31;58477;48.072;11.970;2024-01-25T14:43:20;8.83;79.01
65207;SHT31;58477;48.072;11.970;2024-01-25T14:45:45;8.85;79.08
65207;SHT31;58477;48.072;11.970;2024-01-25T14:48:11;8.75;78.61
65207;SHT31;58477;48.072;11.970;2024-01-25T14:50:37;8.73;78.67
65207;SHT31;58477;48.072;11.970;2024-01-25T14:53:02;8.69;78.65
65207;SHT31;58477;48.072;11.970;2024-01-25T14:55:28;8.67;79.54
65207;SHT31;58477;48.072;11.970;2024-01-25T14:57:53;8.64;79.17
65207;SHT31;58477;48.072;11.970;2024-01-25T15:00:19;8.54;79.44
65207;SHT31;58477;48.072;11.970;2024-01-25T15:02:46;8.52;80.31
65207;SHT31;58477;48.072;11.970;2024-01-25T15:05:11;8.42;80.11
65207;SHT31;58477;48.072;11.970;2024-01-25T15:07:38;8.38;80.90
65207;SHT31;58477;48.072;11.970;2024-01-25T15:10:04;8.38;80.20
65207;SHT31;58477;48.072;11.970;2024-01-25T15:12:29;8.35;80.58
65207;SHT31;58477;48.072;11.970;2024-01-25T15:14:55;8.33;80.48
65207;SHT31;58477;48.072;11.970;2024-01-25T15:17:20;8.33;80.82
65207;SHT31;58477;48.072;11.970;2024-01-25T15:19:45;8.23;80.76
65207;SHT31;58477;48.072;11.970;2024-01-25T15:22:11;8.13;81.09